Comfrey, Minnesota
Current Conditions -  °F | °C
As of 1:53 PM on Thursday 23 Oct 2014 (Local Time) from KMWM Reporting Station
Clear Clear  
Wind Chill: 70°   Ceiling: Unl
Heat Index: 70°   Visibility: 10mi
Dew Point: 37°   Wind: 12mph
Humidity: 31%   Direction: 260°W
Pressure: 29.99"   Gusts: 18mph
Location:  44.11°N, 94.9°W
Report Text: KMWM 231853Z AUTO 26010G16KT 10SM CLR 21/03 A2999 RMK AO2
Loading
Personal Weather Stations






























Interactive Weather Map
Tropical Storm Tracking
New forecast layout! Learn more

10-Day Weather Forecast

Advertisements
Track Severe Weather on mobile